Time;durP1;ratioP1;P1;durP2;ratioP2;P2;SDS_P1;SDS_P2;PMS_P1;PMS_P2;Temp;Humidity;BMP_temperature;BMP_pressure;BME280_temperature;BME280_humidity;BME280_pressure;Samples;Min_cycle;Max_cycle;Signal;HPM_P1;HPM_P2
2021/03/30 00:00:09;;;;;;;5.38;3.90;;;14.30;96.70;;;;;;5053787;28;20044;-77
2021/03/30 00:02:37;;;;;;;5.00;3.67;;;14.30;96.40;;;;;;5052240;28;20147;-77
2021/03/30 00:05:08;;;;;;;5.20;3.45;;;14.10;96.70;;;;;;5056280;28;20484;-76
2021/03/30 00:07:35;;;;;;;5.97;3.78;;;14.10;96.70;;;;;;5051860;28;20033;-76
2021/03/30 00:10:04;;;;;;;5.50;3.45;;;14.10;96.70;;;;;;5054412;28;20037;-76
2021/03/30 00:12:31;;;;;;;6.80;3.72;;;14.20;96.70;;;;;;5056160;28;20498;-76
2021/03/30 00:14:58;;;;;;;4.38;3.78;;;14.10;96.70;;;;;;5051049;28;20069;-76
2021/03/30 00:17:25;;;;;;;5.18;3.30;;;14.20;96.70;;;;;;5055969;28;20509;-76
2021/03/30 00:19:53;;;;;;;3.45;3.03;;;14.20;96.20;;;;;;5057816;28;20087;-76
2021/03/30 00:22:21;;;;;;;4.72;3.22;;;14.10;96.40;;;;;;5055069;28;20061;-77
2021/03/30 00:24:48;;;;;;;4.95;3.35;;;14.10;96.30;;;;;;5055519;28;20485;-77
2021/03/30 00:27:15;;;;;;;4.00;3.42;;;14.10;96.50;;;;;;5055987;28;20037;-76
2021/03/30 00:29:43;;;;;;;3.55;3.10;;;14.10;96.40;;;;;;5049453;28;20048;-76
2021/03/30 00:32:12;;;;;;;4.25;3.25;;;14.00;96.60;;;;;;5039216;28;20245;-76
2021/03/30 00:34:39;;;;;;;5.28;3.50;;;14.00;96.70;;;;;;5046271;28;20136;-76
2021/03/30 00:37:07;;;;;;;4.93;3.80;;;14.00;96.70;;;;;;5056422;28;20057;-76
2021/03/30 00:39:35;;;;;;;5.00;3.20;;;13.90;96.60;;;;;;5033036;28;20049;-76
2021/03/30 00:42:03;;;;;;;3.58;2.90;;;13.90;96.70;;;;;;5055417;28;20043;-76
2021/03/30 00:44:30;;;;;;;6.43;3.50;;;13.90;96.70;;;;;;5053938;28;20040;-76
2021/03/30 00:47:02;;;;;;;5.82;3.22;;;13.90;96.70;;;;;;5056898;28;20120;-76
2021/03/30 00:49:32;;;;;;;5.00;3.15;;;13.90;96.70;;;;;;5055592;28;20040;-76
2021/03/30 00:52:00;;;;;;;3.83;2.88;;;13.80;96.50;;;;;;5039160;28;20532;-76
2021/03/30 00:54:37;;;;;;;;;;;13.60;96.70;;;;;;5049599;28;20044;-76
2021/03/30 00:57:10;;;;;;;3.85;2.90;;;13.50;96.70;;;;;;5056092;28;20022;-76
2021/03/30 00:59:37;;;;;;;6.95;3.30;;;13.60;96.70;;;;;;5049748;28;20049;-77
2021/03/30 01:02:05;;;;;;;4.32;3.17;;;13.80;96.60;;;;;;5052746;28;20041;-76
2021/03/30 01:04:32;;;;;;;4.90;3.33;;;13.70;96.40;;;;;;5055475;28;20514;-76
2021/03/30 01:07:01;;;;;;;2.92;2.63;;;13.80;96.40;;;;;;5058764;28;20133;-79
2021/03/30 01:09:36;;;;;;;6.03;3.28;;;13.50;96.70;;;;;;5056364;28;20046;-79
2021/03/30 01:12:23;;;;;;;5.28;3.00;;;13.60;96.70;;;;;;5056784;28;20465;-78
2021/03/30 01:15:04;;;;;;;4.55;3.33;;;13.60;96.70;;;;;;5055034;28;20090;-80
2021/03/30 01:17:37;;;;;;;4.20;3.13;;;13.40;96.70;;;;;;5054951;28;20037;-79
2021/03/30 01:20:40;;;;;;;4.63;3.08;;;13.40;96.70;;;;;;5053472;28;20040;-79
2021/03/30 01:23:25;;;;;;;7.28;3.45;;;13.40;96.70;;;;;;5035485;28;20101;-78
2021/03/30 01:26:01;;;;;;;4.15;3.40;;;13.40;96.70;;;;;;5056364;28;20102;-78
2021/03/30 01:28:37;;;;;;;7.65;3.70;;;13.50;96.70;;;;;;5037109;28;20644;-79
2021/03/30 01:31:05;;;;;;;5.47;3.80;;;13.40;96.70;;;;;;5059422;28;20546;-79
2021/03/30 01:33:35;;;;;;;4.97;3.53;;;13.40;96.70;;;;;;5038779;28;20082;-78
2021/03/30 01:36:03;;;;;;;6.53;3.55;;;13.40;96.70;;;;;;5039571;28;20060;-78
2021/03/30 01:38:30;;;;;;;3.80;3.13;;;13.30;96.70;;;;;;5054970;28;20329;-78
2021/03/30 01:40:58;;;;;;;4.55;3.65;;;13.30;96.70;;;;;;5060632;28;20444;-79
2021/03/30 01:43:28;;;;;;;4.07;3.30;;;13.30;96.70;;;;;;5059026;28;20433;-78
2021/03/30 01:45:56;;;;;;;7.53;3.85;;;13.20;96.70;;;;;;5061828;28;20040;-78
2021/03/30 01:48:26;;;;;;;7.38;3.90;;;13.20;96.70;;;;;;5060738;28;20045;-78
2021/03/30 01:50:55;;;;;;;5.18;3.88;;;13.00;96.70;;;;;;5057358;28;20064;-78
2021/03/30 01:53:25;;;;;;;8.15;3.90;;;13.00;96.70;;;;;;5057202;28;20043;-78
2021/03/30 01:55:56;;;;;;;5.13;3.53;;;13.00;96.70;;;;;;5060607;28;20049;-78
2021/03/30 01:58:24;;;;;;;5.32;3.83;;;13.00;96.70;;;;;;5059637;28;20054;-79
2021/03/30 02:00:54;;;;;;;6.60;3.28;;;13.10;96.70;;;;;;5058552;28;20047;-80
2021/03/30 02:03:22;;;;;;;4.38;3.47;;;13.10;96.70;;;;;;5058819;28;20048;-79
2021/03/30 02:05:50;;;;;;;7.45;3.83;;;13.00;96.70;;;;;;5058777;28;20029;-78
2021/03/30 02:08:19;;;;;;;3.78;2.88;;;13.20;96.70;;;;;;5041333;28;20506;-78
2021/03/30 02:10:49;;;;;;;6.43;3.45;;;13.20;96.70;;;;;;5057976;28;20041;-79
2021/03/30 02:13:24;;;;;;;4.10;3.28;;;13.20;96.70;;;;;;5059321;28;20135;-78
2021/03/30 02:15:57;;;;;;;3.60;3.30;;;13.20;96.70;;;;;;5058669;28;20432;-78
2021/03/30 02:18:31;;;;;;;5.60;3.65;;;13.20;96.70;;;;;;5056494;28;20514;-78
2021/03/30 02:21:03;;;;;;;5.95;3.35;;;13.10;96.70;;;;;;5052491;28;20598;-78
2021/03/30 02:23:36;;;;;;;4.93;3.65;;;13.00;96.70;;;;;;5038258;28;20045;-78
2021/03/30 02:26:07;;;;;;;5.05;3.40;;;13.10;96.70;;;;;;5054387;28;20526;-78
2021/03/30 02:28:44;;;;;;;5.63;3.50;;;13.00;96.70;;;;;;5060357;28;20129;-78
2021/03/30 02:31:15;;;;;;;6.10;3.30;;;13.10;96.70;;;;;;5059955;28;20547;-78
2021/03/30 02:33:45;;;;;;;4.03;2.88;;;13.10;96.70;;;;;;5060570;28;20044;-78
2021/03/30 02:36:14;;;;;;;5.25;3.15;;;12.90;96.70;;;;;;5041097;28;20049;-78
2021/03/30 02:38:42;;;;;;;4.57;2.60;;;12.90;96.70;;;;;;5043787;28;20040;-78
2021/03/30 02:41:10;;;;;;;4.35;2.75;;;12.80;96.70;;;;;;5055294;28;20033;-78
2021/03/30 02:43:38;;;;;;;4.20;3.20;;;12.80;96.70;;;;;;5058805;28;20237;-78
2021/03/30 02:46:06;;;;;;;5.63;3.75;;;12.80;96.70;;;;;;5044122;28;20036;-78
2021/03/30 02:48:37;;;;;;;4.97;3.30;;;12.80;96.70;;;;;;5041298;28;20041;-78
2021/03/30 02:51:05;;;;;;;4.18;3.03;;;12.80;96.70;;;;;;5057995;28;20044;-78
2021/03/30 02:53:34;;;;;;;4.60;3.42;;;12.90;96.70;;;;;;5060023;28;20041;-78
2021/03/30 02:56:04;;;;;;;4.97;3.20;;;12.70;96.70;;;;;;5039410;28;20048;-78
2021/03/30 02:58:32;;;;;;;4.28;3.13;;;12.70;96.70;;;;;;5058005;28;20143;-77
2021/03/30 03:01:00;;;;;;;7.00;3.35;;;12.70;96.70;;;;;;5057089;28;20040;-78
2021/03/30 03:03:31;;;;;;;3.47;3.17;;;12.70;96.70;;;;;;5057582;28;20044;-78
2021/03/30 03:05:59;;;;;;;4.28;3.22;;;12.60;96.70;;;;;;5051843;28;20050;-78
2021/03/30 03:08:28;;;;;;;5.45;3.67;;;12.60;96.70;;;;;;5041008;28;20539;-78
2021/03/30 03:10:58;;;;;;;6.45;3.50;;;12.50;96.70;;;;;;5058236;28;20095;-78
2021/03/30 03:13:26;;;;;;;4.95;3.22;;;12.40;96.70;;;;;;5056609;28;20049;-78
2021/03/30 03:15:54;;;;;;;5.32;4.13;;;12.40;96.70;;;;;;5057863;28;20045;-77
2021/03/30 03:18:22;;;;;;;5.25;3.28;;;12.40;96.70;;;;;;5049350;28;20579;-78
2021/03/30 03:20:50;;;;;;;6.32;4.13;;;12.20;96.70;;;;;;5061116;28;20121;-78
2021/03/30 03:23:18;;;;;;;6.72;3.70;;;12.10;96.70;;;;;;5056069;28;20068;-77
2021/03/30 03:25:46;;;;;;;5.53;3.60;;;12.20;96.70;;;;;;5062181;28;20044;-78
2021/03/30 03:28:15;;;;;;;4.70;3.83;;;12.20;96.70;;;;;;5041910;28;20044;-78
2021/03/30 03:30:42;;;;;;;5.85;4.07;;;12.10;96.70;;;;;;5052473;28;20044;-78
2021/03/30 03:33:11;;;;;;;7.80;4.22;;;12.00;96.70;;;;;;5055132;28;20064;-78
2021/03/30 03:35:41;;;;;;;6.53;4.57;;;12.00;96.70;;;;;;5060323;28;20028;-78
2021/03/30 03:38:12;;;;;;;7.82;4.07;;;12.00;96.70;;;;;;5057003;28;20040;-77
2021/03/30 03:40:39;;;;;;;4.18;3.78;;;12.00;96.70;;;;;;5054795;28;20548;-78
2021/03/30 03:43:06;;;;;;;4.25;3.67;;;12.00;96.70;;;;;;5051368;28;20048;-78
2021/03/30 03:45:36;;;;;;;4.75;3.92;;;11.90;96.70;;;;;;5059416;28;20765;-77
2021/03/30 03:48:04;;;;;;;5.38;3.80;;;11.90;96.70;;;;;;5039983;28;20052;-78
2021/03/30 03:50:31;;;;;;;5.53;4.38;;;11.80;96.70;;;;;;5055389;28;20543;-78
2021/03/30 03:52:59;;;;;;;4.43;3.75;;;11.80;96.70;;;;;;5050426;28;20141;-78
2021/03/30 03:55:29;;;;;;;6.40;4.15;;;11.80;96.70;;;;;;5055886;28;20214;-76
2021/03/30 03:58:02;;;;;;;4.65;3.80;;;11.80;96.70;;;;;;5063731;28;20099;-78
2021/03/30 04:00:32;;;;;;;6.78;4.32;;;11.90;96.70;;;;;;5057501;28;20056;-77
2021/03/30 04:03:05;;;;;;;5.95;4.13;;;11.80;96.70;;;;;;5041590;28;20044;-77
2021/03/30 04:05:40;;;;;;;5.78;4.30;;;11.80;96.70;;;;;;5051980;28;20169;-76
2021/03/30 04:08:11;;;;;;;7.82;3.95;;;11.80;96.70;;;;;;5035641;28;20801;-76
2021/03/30 04:10:45;;;;;;;7.82;4.35;;;11.70;96.70;;;;;;5056810;28;20040;-77
2021/03/30 04:13:15;;;;;;;6.93;4.45;;;11.70;96.70;;;;;;5042059;28;20133;-76
2021/03/30 04:15:44;;;;;;;6.78;3.88;;;11.70;96.70;;;;;;5056176;28;20040;-76
2021/03/30 04:18:12;;;;;;;7.30;4.15;;;11.70;96.70;;;;;;5040841;28;20532;-76
2021/03/30 04:20:40;;;;;;;5.43;3.63;;;11.70;96.70;;;;;;5058653;28;20071;-76
2021/03/30 04:23:07;;;;;;;6.47;3.63;;;11.70;96.70;;;;;;5058910;28;20522;-76
2021/03/30 04:25:34;;;;;;;4.05;3.42;;;11.80;96.70;;;;;;5056085;28;20040;-76
2021/03/30 04:28:02;;;;;;;6.28;3.72;;;11.80;96.70;;;;;;5053185;28;20378;-76
2021/03/30 04:30:29;;;;;;;5.22;3.63;;;11.80;96.70;;;;;;5049567;28;20040;-76
2021/03/30 04:32:56;;;;;;;4.93;3.55;;;11.80;96.70;;;;;;5053656;28;20090;-76
2021/03/30 04:35:24;;;;;;;4.43;3.20;;;11.60;96.70;;;;;;5055165;28;20470;-76
2021/03/30 04:37:52;;;;;;;6.60;4.03;;;11.60;96.70;;;;;;5040321;28;20037;-76
2021/03/30 04:40:19;;;;;;;7.75;3.45;;;11.70;96.70;;;;;;5038953;28;20059;-76
2021/03/30 04:42:46;;;;;;;7.40;3.45;;;11.70;96.70;;;;;;5058537;28;20044;-76
2021/03/30 04:45:14;;;;;;;4.38;3.42;;;11.60;96.70;;;;;;5056696;28;20063;-76
2021/03/30 04:47:41;;;;;;;5.78;3.50;;;11.60;96.70;;;;;;5057452;28;20044;-76
2021/03/30 04:50:09;;;;;;;9.15;4.40;;;11.50;96.70;;;;;;5040415;28;20044;-76
2021/03/30 04:52:38;;;;;;;8.02;3.42;;;11.40;96.70;;;;;;5059786;28;20518;-76
2021/03/30 04:55:07;;;;;;;4.93;3.15;;;11.50;96.70;;;;;;5054194;28;20037;-76
2021/03/30 04:57:34;;;;;;;5.80;3.30;;;11.50;96.70;;;;;;5061323;28;20040;-77
2021/03/30 05:00:04;;;;;;;6.47;3.83;;;11.50;96.70;;;;;;5054286;28;20508;-76
2021/03/30 05:02:31;;;;;;;6.25;3.25;;;11.50;96.70;;;;;;5051718;28;20045;-77
2021/03/30 05:04:59;;;;;;;6.82;3.33;;;11.50;96.70;;;;;;5051320;28;20418;-78
2021/03/30 05:07:26;;;;;;;6.38;3.80;;;11.40;96.70;;;;;;5054360;28;20445;-77
2021/03/30 05:09:55;;;;;;;5.45;3.60;;;11.40;96.70;;;;;;5050316;28;20398;-78
2021/03/30 05:12:22;;;;;;;5.25;3.50;;;11.50;96.70;;;;;;5041269;28;20144;-78
2021/03/30 05:14:49;;;;;;;10.27;4.50;;;11.50;96.70;;;;;;5053506;28;20120;-77
2021/03/30 05:17:17;;;;;;;5.88;4.15;;;11.40;96.70;;;;;;5061324;28;20727;-78
2021/03/30 05:19:44;;;;;;;8.82;4.00;;;11.40;96.70;;;;;;5058233;28;20048;-77
2021/03/30 05:22:11;;;;;;;6.00;4.18;;;11.40;96.70;;;;;;5054883;28;20157;-77
2021/03/30 05:24:39;;;;;;;7.57;4.20;;;11.50;96.70;;;;;;5050688;28;20048;-78
2021/03/30 05:27:08;;;;;;;8.77;4.15;;;11.50;96.70;;;;;;5053590;28;20402;-78
2021/03/30 05:32:14;;;;;;;12.48;4.55;;;11.50;96.70;;;;;;5056457;28;20049;-78
2021/03/30 05:34:42;;;;;;;5.85;4.60;;;11.50;96.70;;;;;;5050716;28;20057;-78
2021/03/30 05:37:09;;;;;;;5.32;3.80;;;11.60;96.70;;;;;;5051767;28;21198;-78
2021/03/30 05:39:37;;;;;;;6.57;4.32;;;11.50;96.70;;;;;;5056115;28;20037;-78
2021/03/30 05:42:06;;;;;;;8.68;5.00;;;11.50;96.70;;;;;;5042473;28;20064;-78
2021/03/30 05:44:34;;;;;;;11.23;3.70;;;11.50;96.70;;;;;;5070230;28;20075;-78
2021/03/30 05:47:14;;;;;;;12.05;4.22;;;11.50;96.70;;;;;;5061491;28;20041;-78
2021/03/30 05:49:43;;;;;;;10.38;3.95;;;11.60;96.70;;;;;;5059179;28;20102;-77
2021/03/30 05:52:18;;;;;;;9.05;3.90;;;11.60;96.70;;;;;;5060217;28;20057;-78
2021/03/30 05:54:48;;;;;;;4.82;3.63;;;11.60;96.70;;;;;;5058668;28;20044;-78
2021/03/30 05:57:17;;;;;;;7.07;3.60;;;11.60;96.70;;;;;;5043127;28;20403;-78
2021/03/30 05:59:53;;;;;;;8.10;3.78;;;11.60;96.70;;;;;;5071620;28;20187;-78
2021/03/30 06:02:23;;;;;;;7.43;3.80;;;11.50;96.70;;;;;;5058037;28;20059;-78
2021/03/30 06:04:51;;;;;;;4.93;3.92;;;11.50;96.70;;;;;;5055905;28;20040;-78
2021/03/30 06:07:18;;;;;;;6.07;3.72;;;11.40;96.70;;;;;;5055171;28;20043;-79
2021/03/30 06:09:47;;;;;;;7.68;3.75;;;11.60;96.70;;;;;;5046227;28;20617;-79
2021/03/30 06:12:16;;;;;;;5.43;4.50;;;11.70;96.70;;;;;;5056533;28;20053;-79
2021/03/30 06:14:45;;;;;;;6.43;4.47;;;11.80;96.70;;;;;;5057701;28;20535;-79
2021/03/30 06:17:13;;;;;;;5.60;4.03;;;11.80;96.70;;;;;;5057857;28;20522;-79
2021/03/30 06:19:50;;;;;;;6.72;4.07;;;11.80;96.70;;;;;;5044461;28;20525;-80
2021/03/30 06:22:18;;;;;;;6.15;4.00;;;11.80;96.70;;;;;;5054876;28;20036;-79
2021/03/30 06:24:46;;;;;;;7.93;4.25;;;11.70;96.70;;;;;;5054697;28;20068;-79
2021/03/30 06:27:29;;;;;;;5.05;4.20;;;11.70;96.70;;;;;;5055074;28;20061;-79
2021/03/30 06:29:59;;;;;;;7.93;4.03;;;11.80;96.70;;;;;;5062800;28;20110;-79
2021/03/30 06:32:28;;;;;;;4.65;4.15;;;11.80;96.70;;;;;;5052939;28;20080;-79
2021/03/30 06:35:10;;;;;;;6.50;4.50;;;11.80;96.70;;;;;;5053222;28;20041;-80
2021/03/30 06:37:39;;;;;;;9.35;4.82;;;11.90;96.70;;;;;;5054355;28;20063;-79
2021/03/30 06:40:18;;;;;;;9.80;4.70;;;12.00;96.70;;;;;;5052309;28;20036;-79
2021/03/30 06:42:56;;;;;;;7.97;4.50;;;11.90;96.70;;;;;;5060351;28;20094;-80
2021/03/30 06:45:26;;;;;;;5.22;4.13;;;11.90;96.70;;;;;;5053770;28;20047;-79
2021/03/30 06:47:56;;;;;;;7.15;4.65;;;12.10;96.70;;;;;;5039502;28;20540;-80
2021/03/30 06:50:28;;;;;;;7.55;4.97;;;12.10;96.70;;;;;;5039693;28;20049;-80
2021/03/30 06:52:56;;;;;;;5.65;4.72;;;12.10;96.70;;;;;;5040388;28;20406;-80
2021/03/30 06:55:29;;;;;;;6.63;4.60;;;12.20;96.70;;;;;;5059761;28;20089;-80
2021/03/30 06:58:01;;;;;;;7.10;5.22;;;12.20;96.70;;;;;;5062109;28;20127;-79
2021/03/30 07:00:31;;;;;;;9.02;5.28;;;12.30;96.70;;;;;;5058707;28;20063;-79
2021/03/30 07:03:00;;;;;;;8.35;4.75;;;12.40;96.70;;;;;;5042945;28;20057;-79
2021/03/30 07:05:31;;;;;;;5.85;5.10;;;12.40;96.70;;;;;;5056404;28;20041;-79
2021/03/30 07:08:05;;;;;;;8.13;5.25;;;12.60;96.70;;;;;;5061771;28;20048;-80
2021/03/30 07:10:34;;;;;;;9.23;5.47;;;12.70;96.70;;;;;;5053402;28;20055;-79
2021/03/30 07:13:03;;;;;;;7.90;4.57;;;12.70;96.70;;;;;;5058058;28;20055;-80
2021/03/30 07:15:31;;;;;;;6.10;4.78;;;12.70;96.70;;;;;;5039467;28;20128;-79
2021/03/30 07:18:04;;;;;;;7.03;5.50;;;12.80;96.70;;;;;;5060769;28;20052;-79
2021/03/30 07:20:36;;;;;;;8.23;5.05;;;12.90;96.70;;;;;;5060766;28;20517;-79
2021/03/30 07:23:07;;;;;;;10.40;5.05;;;12.90;96.70;;;;;;5041786;28;20120;-80
2021/03/30 07:25:39;;;;;;;8.05;5.38;;;13.00;96.70;;;;;;5036759;28;20585;-80
2021/03/30 07:28:14;;;;;;;6.95;4.88;;;13.00;96.70;;;;;;5052743;28;20522;-79
2021/03/30 07:30:45;;;;;;;7.57;5.60;;;13.10;96.70;;;;;;5055799;28;20127;-80
2021/03/30 07:33:20;;;;;;;7.72;5.88;;;13.20;96.70;;;;;;5053260;28;20406;-79
2021/03/30 07:35:48;;;;;;;7.68;5.53;;;13.30;96.70;;;;;;5055905;28;20048;-79
2021/03/30 07:38:19;;;;;;;9.05;5.60;;;13.30;96.70;;;;;;5057643;28;20118;-80
2021/03/30 07:40:48;;;;;;;11.10;5.65;;;13.30;96.70;;;;;;5037751;28;20041;-83
2021/03/30 07:43:24;;;;;;;7.65;5.80;;;13.40;96.70;;;;;;5053561;28;20032;-78
2021/03/30 07:45:56;;;;;;;6.22;5.63;;;13.50;96.70;;;;;;5055258;28;20040;-80
2021/03/30 07:48:26;;;;;;;8.88;6.35;;;13.60;96.70;;;;;;5057865;28;20052;-81
2021/03/30 07:50:57;;;;;;;9.60;5.30;;;13.70;96.70;;;;;;5043953;28;20048;-84
2021/03/30 07:53:40;;;;;;;7.15;5.35;;;13.80;96.70;;;;;;5041799;28;20040;-80
2021/03/30 07:56:10;;;;;;;8.45;5.22;;;13.90;96.70;;;;;;5056147;28;20103;-81
2021/03/30 07:58:42;;;;;;;7.30;5.30;;;14.00;96.70;;;;;;5037171;28;20076;-79
2021/03/30 08:01:11;;;;;;;8.77;4.80;;;14.10;96.70;;;;;;5042411;28;20086;-81
2021/03/30 08:03:41;;;;;;;11.27;8.75;;;14.20;96.70;;;;;;5057723;28;20048;-79
2021/03/30 08:06:24;;;;;;;11.40;7.40;;;14.30;96.70;;;;;;5056124;28;20596;-80
2021/03/30 08:09:14;;;;;;;9.57;5.75;;;14.40;96.70;;;;;;5052918;28;20049;-77
2021/03/30 08:11:48;;;;;;;8.70;6.15;;;14.40;96.70;;;;;;5041550;28;20056;-82
2021/03/30 08:14:46;;;;;;;16.27;10.90;;;14.60;96.70;;;;;;5056106;28;20040;-83
2021/03/30 08:17:18;;;;;;;11.02;7.95;;;14.60;96.70;;;;;;5052324;28;20040;-80
2021/03/30 08:19:55;;;;;;;13.02;8.75;;;14.70;96.70;;;;;;5035331;28;20044;-81
2021/03/30 08:22:25;;;;;;;10.60;6.68;;;14.80;96.70;;;;;;5056580;28;20052;-79
2021/03/30 08:24:55;;;;;;;9.55;6.15;;;15.00;96.70;;;;;;5056450;28;20041;-81
2021/03/30 08:27:38;;;;;;;9.55;6.72;;;15.10;96.70;;;;;;5050543;28;20124;-81
2021/03/30 08:30:36;;;;;;;7.68;5.65;;;15.20;96.70;;;;;;5054239;28;20318;-80
2021/03/30 08:33:07;;;;;;;9.88;5.63;;;15.30;96.70;;;;;;5058488;28;20701;-80
2021/03/30 08:35:38;;;;;;;8.57;4.97;;;15.40;96.20;;;;;;5048229;28;20390;-81
2021/03/30 08:38:06;;;;;;;9.30;5.95;;;15.50;96.30;;;;;;5055493;28;20090;-81
2021/03/30 08:40:43;;;;;;;9.00;5.75;;;15.60;96.20;;;;;;5053366;28;20069;-80
2021/03/30 08:43:25;;;;;;;10.23;5.57;;;15.70;95.50;;;;;;5056254;28;20040;-81
2021/03/30 08:46:05;;;;;;;9.20;5.88;;;15.80;95.50;;;;;;5036873;28;20060;-80
2021/03/30 08:48:35;;;;;;;8.18;6.05;;;15.90;95.10;;;;;;5040922;28;20659;-79
2021/03/30 08:51:07;;;;;;;9.32;5.15;;;15.90;94.40;;;;;;5053110;28;20041;-79
2021/03/30 08:53:36;;;;;;;6.40;4.85;;;16.00;94.20;;;;;;5063088;28;20044;-81
2021/03/30 08:56:09;;;;;;;8.90;4.95;;;16.10;93.70;;;;;;5042275;28;20044;-81
2021/03/30 08:58:45;;;;;;;5.68;4.93;;;16.20;93.30;;;;;;5043601;28;20049;-81
2021/03/30 09:01:16;;;;;;;6.50;5.25;;;16.30;93.20;;;;;;5062478;28;20045;-80
2021/03/30 09:03:53;;;;;;;8.45;5.55;;;16.40;93.20;;;;;;5061260;28;20037;-80
2021/03/30 09:06:33;;;;;;;9.40;5.25;;;16.50;92.90;;;;;;5060613;28;20047;-80
2021/03/30 09:09:03;;;;;;;9.27;5.15;;;16.60;92.60;;;;;;5063796;28;20078;-80
2021/03/30 09:11:35;;;;;;;7.55;5.53;;;16.70;92.10;;;;;;5057674;28;20087;-80
2021/03/30 09:14:05;;;;;;;8.75;4.93;;;16.80;92.10;;;;;;5059858;28;20382;-82
2021/03/30 09:16:34;;;;;;;10.07;5.32;;;16.90;91.50;;;;;;5059153;28;20112;-81
2021/03/30 09:19:22;;;;;;;6.65;4.55;;;17.00;91.00;;;;;;5043268;28;20041;-80
2021/03/30 09:21:57;;;;;;;6.50;5.13;;;17.10;91.30;;;;;;5040656;28;20510;-79
2021/03/30 09:24:35;;;;;;;6.05;4.88;;;17.10;90.60;;;;;;5058410;28;20048;-84
2021/03/30 09:27:03;;;;;;;5.60;4.40;;;17.20;90.60;;;;;;5042827;28;20049;-78
2021/03/30 09:29:31;;;;;;;120.35;13.43;;;17.40;89.40;;;;;;5056753;28;20032;-80
2021/03/30 09:31:59;;;;;;;12.50;4.53;;;17.50;89.40;;;;;;5061611;28;20059;-80
2021/03/30 09:34:28;;;;;;;14.15;4.55;;;17.60;88.90;;;;;;5058228;28;20514;-81
2021/03/30 09:36:59;;;;;;;8.27;4.20;;;17.80;87.80;;;;;;5042523;28;20410;-80
2021/03/30 09:39:28;;;;;;;6.43;3.90;;;17.90;87.90;;;;;;5053919;28;20045;-77
2021/03/30 09:41:56;;;;;;;8.93;4.43;;;17.90;87.60;;;;;;5061145;28;20064;-79
2021/03/30 09:44:25;;;;;;;6.15;3.80;;;18.00;87.00;;;;;;5052545;28;20029;-81
2021/03/30 09:46:55;;;;;;;5.22;3.97;;;18.20;86.00;;;;;;5063396;28;20214;-83
2021/03/30 09:49:24;;;;;;;7.55;3.75;;;18.30;87.10;;;;;;5044441;28;20044;-79
2021/03/30 09:51:54;;;;;;;4.95;3.70;;;18.30;86.40;;;;;;5063217;28;20040;-83
2021/03/30 09:54:26;;;;;;;5.35;3.60;;;18.40;86.00;;;;;;5058393;28;20047;-81
2021/03/30 09:57:00;;;;;;;3.88;3.22;;;18.60;85.30;;;;;;5058324;28;20379;-82
2021/03/30 09:59:29;;;;;;;5.30;3.80;;;18.60;85.20;;;;;;5059333;28;20036;-82
2021/03/30 10:01:58;;;;;;;4.13;3.20;;;18.70;84.80;;;;;;5041150;28;20502;-78
2021/03/30 10:04:27;;;;;;;4.00;3.58;;;18.90;83.60;;;;;;5057902;28;20051;-79
2021/03/30 10:06:57;;;;;;;5.20;3.92;;;19.00;83.00;;;;;;5061322;28;20040;-80
2021/03/30 10:09:24;;;;;;;6.68;3.60;;;19.10;82.60;;;;;;5059782;28;20048;-81
2021/03/30 10:11:52;;;;;;;4.82;2.90;;;19.20;83.20;;;;;;5057869;28;20057;-83
2021/03/30 10:14:46;;;;;;;8.27;3.38;;;19.20;82.30;;;;;;5048748;28;20414;-82
2021/03/30 10:17:14;;;;;;;7.20;3.30;;;19.50;82.70;;;;;;5055719;28;20136;-82
2021/03/30 10:19:49;;;;;;;4.85;2.95;;;19.70;81.40;;;;;;5061387;28;20033;-80
2021/03/30 10:22:34;;;;;;;6.00;3.50;;;19.90;81.10;;;;;;5058471;28;20036;-82
2021/03/30 10:25:16;;;;;;;4.45;3.05;;;20.10;80.10;;;;;;5054244;28;20051;-82
2021/03/30 10:27:50;;;;;;;7.78;3.40;;;20.20;80.20;;;;;;5056571;28;20033;-82
2021/03/30 10:30:28;;;;;;;5.60;3.30;;;20.30;79.80;;;;;;5057203;28;20051;-85
2021/03/30 10:32:58;;;;;;;5.40;3.17;;;20.60;78.10;;;;;;5056885;28;20444;-85
2021/03/30 10:35:29;;;;;;;7.72;3.45;;;20.70;78.10;;;;;;5070067;28;20496;-81
2021/03/30 10:37:58;;;;;;;6.00;3.38;;;20.90;78.00;;;;;;5050779;28;20048;-87
2021/03/30 10:40:31;;;;;;;8.45;3.20;;;20.90;77.10;;;;;;5037799;28;20447;-90
2021/03/30 10:43:16;;;;;;;4.70;2.83;;;21.10;77.80;;;;;;5057975;28;20059;-81
2021/03/30 10:45:43;;;;;;;4.75;3.00;;;21.20;77.10;;;;;;5045328;28;20049;-84
2021/03/30 10:48:12;;;;;;;5.80;3.22;;;21.40;76.80;;;;;;5058046;28;20044;-83
2021/03/30 10:50:40;;;;;;;5.43;3.47;;;21.50;76.90;;;;;;5058203;28;20040;-89
2021/03/30 10:53:09;;;;;;;2.92;2.60;;;21.50;75.70;;;;;;5053671;28;20041;-85
2021/03/30 10:55:37;;;;;;;6.28;2.70;;;21.70;75.00;;;;;;5061856;28;20094;-90
2021/03/30 10:58:08;;;;;;;6.43;2.80;;;21.70;75.00;;;;;;5052304;28;20037;-90
2021/03/30 11:00:39;;;;;;;6.28;3.15;;;21.90;75.00;;;;;;5054882;28;20070;-86
2021/03/30 11:03:17;;;;;;;9.50;3.40;;;21.90;73.70;;;;;;5056420;28;20056;-82
2021/03/30 11:05:44;;;;;;;4.57;2.70;;;22.00;73.80;;;;;;5038768;28;20105;-87
2021/03/30 11:08:13;;;;;;;4.32;2.90;;;22.20;73.20;;;;;;5062891;28;20044;-90
2021/03/30 11:10:44;;;;;;;5.03;2.40;;;22.40;71.50;;;;;;5039321;28;20037;-83
2021/03/30 11:13:12;;;;;;;5.68;2.60;;;22.40;72.40;;;;;;5045118;28;20049;-87
2021/03/30 11:15:40;;;;;;;5.45;3.03;;;22.60;72.20;;;;;;5057102;28;20426;-84
2021/03/30 11:18:08;;;;;;;4.70;2.78;;;22.50;71.20;;;;;;5054384;28;20051;-76
2021/03/30 11:20:35;;;;;;;3.33;2.70;;;22.60;70.00;;;;;;5041029;28;20042;-81
2021/03/30 11:23:05;;;;;;;5.85;2.92;;;22.80;70.40;;;;;;5037878;28;20049;-88
2021/03/30 11:25:34;;;;;;;5.38;3.15;;;23.00;70.60;;;;;;5054178;28;20044;-80
2021/03/30 11:28:03;;;;;;;4.93;2.80;;;23.20;68.90;;;;;;5038891;28;20113;-83
2021/03/30 11:30:44;;;;;;;4.80;2.58;;;23.30;68.80;;;;;;5037107;28;20040;-82
2021/03/30 11:33:21;;;;;;;6.97;2.92;;;23.30;68.70;;;;;;5062235;28;20426;-83
2021/03/30 11:35:53;;;;;;;4.80;2.65;;;23.40;67.40;;;;;;5063284;28;20055;-80
2021/03/30 11:38:21;;;;;;;6.97;2.60;;;23.50;66.70;;;;;;5061569;28;20049;-80
2021/03/30 11:40:50;;;;;;;4.13;2.38;;;23.60;67.70;;;;;;5055638;28;20043;-82
2021/03/30 11:43:18;;;;;;;6.97;2.60;;;23.70;66.60;;;;;;5054485;28;20064;-82
2021/03/30 11:45:45;;;;;;;3.80;2.60;;;23.70;65.10;;;;;;5056973;28;20033;-82
2021/03/30 11:48:14;;;;;;;4.13;2.22;;;23.80;65.90;;;;;;5040448;28;20076;-81
2021/03/30 11:50:42;;;;;;;3.45;2.30;;;23.90;65.00;;;;;;5056255;28;20063;-79
2021/03/30 11:53:12;;;;;;;5.00;2.45;;;24.00;65.30;;;;;;5053261;28;20581;-82
2021/03/30 11:55:39;;;;;;;6.70;2.53;;;24.30;64.00;;;;;;5049053;28;20399;-80
2021/03/30 11:58:08;;;;;;;3.28;2.25;;;24.30;64.30;;;;;;5053907;28;20076;-80
2021/03/30 12:00:36;;;;;;;3.95;2.10;;;24.30;63.40;;;;;;5052339;28;20042;-78
2021/03/30 12:03:06;;;;;;;7.40;2.55;;;24.40;63.70;;;;;;5050682;28;20642;-81
2021/03/30 12:05:34;;;;;;;5.30;2.25;;;24.40;63.00;;;;;;5057984;28;20033;-81
2021/03/30 12:08:02;;;;;;;4.45;2.10;;;24.70;61.90;;;;;;5037005;28;20048;-81
2021/03/30 12:10:29;;;;;;;2.85;1.88;;;25.00;60.90;;;;;;5059080;28;20048;-78
2021/03/30 12:12:57;;;;;;;3.63;2.13;;;25.10;59.80;;;;;;5040761;28;20075;-81
2021/03/30 12:15:26;;;;;;;4.15;1.92;;;25.20;58.80;;;;;;5055505;28;20072;-82
2021/03/30 12:17:53;;;;;;;4.65;1.70;;;25.30;58.00;;;;;;5057084;28;20362;-82
2021/03/30 12:20:20;;;;;;;3.88;1.75;;;25.30;59.10;;;;;;5053078;28;20132;-80
2021/03/30 12:22:48;;;;;;;4.90;1.95;;;25.50;58.50;;;;;;5051210;28;20053;-77
2021/03/30 12:25:15;;;;;;;3.30;1.70;;;25.50;56.10;;;;;;5053837;28;20440;-76
2021/03/30 12:27:43;;;;;;;3.95;2.15;;;25.40;56.70;;;;;;5051821;28;20040;-76
2021/03/30 12:30:11;;;;;;;5.15;1.33;;;25.50;56.90;;;;;;5037269;28;20497;-79
2021/03/30 12:32:39;;;;;;;2.13;1.38;;;25.40;54.40;;;;;;5051279;28;20036;-76
2021/03/30 12:35:08;;;;;;;3.40;1.40;;;25.50;53.70;;;;;;5056458;28;20041;-76
2021/03/30 12:37:37;;;;;;;4.15;1.42;;;25.60;53.30;;;;;;5024724;28;20510;-76
2021/03/30 12:40:06;;;;;;;1.80;1.10;;;25.80;52.90;;;;;;5055867;28;20051;-76
2021/03/30 12:42:34;;;;;;;2.65;1.50;;;26.00;52.50;;;;;;5048068;28;20044;-76
2021/03/30 12:45:02;;;;;;;2.45;1.15;;;26.20;52.20;;;;;;5040577;28;20458;-76
2021/03/30 12:47:29;;;;;;;4.78;1.50;;;26.30;51.50;;;;;;5054109;28;20600;-77
2021/03/30 12:49:58;;;;;;;5.82;2.53;;;26.10;50.30;;;;;;5054092;28;20458;-77
2021/03/30 12:52:25;;;;;;;4.03;1.50;;;26.10;52.10;;;;;;5054236;28;20051;-77
2021/03/30 12:54:55;;;;;;;3.60;1.52;;;26.30;52.40;;;;;;5053960;28;20041;-79
2021/03/30 12:57:22;;;;;;;4.05;1.45;;;26.30;52.30;;;;;;5054840;28;20479;-78
2021/03/30 12:59:50;;;;;;;2.95;1.50;;;26.30;50.80;;;;;;5058219;28;20032;-78
2021/03/30 13:02:17;;;;;;;4.00;1.52;;;26.30;51.90;;;;;;5057916;28;20376;-76
2021/03/30 13:04:45;;;;;;;3.90;1.10;;;26.40;49.90;;;;;;5057886;28;20494;-76